• Join FlightAware (Why Join?)
  • Login
  • US Flag 
07:32AM EDT


 

Airport Tracker/Info


-or-


 

Live Flight TrackerFlight Track Log ✈ N8324T ✈ 15-Aug-2013 ✈ KSPA - KSUS

Flight Track Log - Related Links

Times and Time Zones

All times are in EDT time to prevent confusion due to time zone crossing. See the N8324T flight status page for this flight to view local times or setup timezone preferences in your user account.

Time Position Orientation Groundspeed Altitude Reporting Facility
EDT Latitude Longitude Course Direction KTS MPH feet Rate Location/Type
02:35PM 35.3500 -82.7094 305° West 113 130 9,000  Level Atlanta Center
02:36PM 35.3672 -82.7400 305° West 113 130 9,300 300 Climbing Atlanta Center
02:37PM 35.3842 -82.7728 302° West 108 124 9,600 240 Climbing Atlanta Center
02:38PM 35.3969 -82.8081 294° West 113 130 9,800 180 Climbing Atlanta Center
02:39PM 35.4161 -82.8436 303° West 113 130 10,000 180 Climbing Atlanta Center
02:40PM 35.4311 -82.8764 299° West 113 130 10,200 240 Climbing Atlanta Center
02:41PM 35.4525 -82.9194 301° West 124 143 10,500 240 Climbing Atlanta Center
02:42PM 35.4653 -82.9525 295° West 119 137 10,700 60 Climbing Atlanta Center
02:43PM 35.4822 -82.9881 300° West 119 137 10,700  Level Atlanta Center
02:44PM 35.5014 -83.0261 302° West 119 137 10,700  Level Atlanta Center
02:45PM 35.5183 -83.0642 299° West 130 150 10,700  Level Atlanta Center
02:46PM 35.5333 -83.1047 294° West 135 155 10,700  Level Atlanta Center
02:47PM 35.5503 -83.1481 296° West 135 155 10,700  Level Atlanta Center
02:48PM 35.5692 -83.1886 300° West 135 155 10,700 -60 Level Atlanta Center
02:49PM 35.5864 -83.2319 296° West 140 161 10,600 -60 Descending Atlanta Center
02:50PM 35.6094 -83.2725 305° West 140 161 10,600  Level Atlanta Center
02:51PM 35.6306 -83.3106 304° West 140 161 10,600  Level Atlanta Center
02:52PM 35.6536 -83.3514 305° West 140 161 10,600  Level Atlanta Center
02:53PM 35.6769 -83.3842 311° West 140 161 10,600  Level Atlanta Center
02:54PM 35.7022 -83.4225 309° West 140 161 10,600  Level Atlanta Center
02:55PM 35.7169 -83.4633 294° West 140 161 10,600  Level Atlanta Center
02:56PM 35.7381 -83.5042 303° West 140 161 10,600  Level Atlanta Center
02:57PM 35.7547 -83.5447 297° West 140 161 10,600  Level Atlanta Center
02:58PM 35.7739 -83.5883 298° West 140 161 10,600  Level Atlanta Center
02:59PM 35.7928 -83.6292 300° West 140 161 10,600  Level Atlanta Center
03:00PM 35.8117 -83.6675 301° West 140 161 10,600  Level Atlanta Center
03:01PM 35.8283 -83.7108 295° West 140 161 10,600  Level Atlanta Center
03:02PM 35.8453 -83.7544 296° West 140 161 10,600  Level Atlanta Center
03:03PM 35.8642 -83.7978 298° West 140 161 10,600  Level Atlanta Center
03:04PM 35.8808 -83.8364 298° West 140 161 10,600  Level Atlanta Center
03:05PM 35.8997 -83.8825 297° West 140 161 10,600  Level Atlanta Center
03:06PM 35.9164 -83.9233 297° West 140 161 10,600  Level Atlanta Center
03:07PM 35.9353 -83.9669 298° West 140 161 10,600  Level Atlanta Center
03:08PM 35.9539 -84.0081 299° West 140 161 10,600  Level Atlanta Center
03:09PM 35.9747 -84.0489 302° West 140 161 10,600  Level Atlanta Center
03:10PM 35.9914 -84.0953 294° West 140 161 10,600  Level Atlanta Center
03:11PM 36.0103 -84.1364 300° West 140 161 10,600  Level Atlanta Center
03:12PM 36.0311 -84.1775 302° West 140 161 10,600  Level Atlanta Center
03:13PM 36.0519 -84.2186 302° West 140 161 10,600  Level Atlanta Center
03:14PM 36.0686 -84.2622 295° West 140 161 10,600  Level Atlanta Center
03:15PM 36.0872 -84.3058 298° West 140 161 10,600  Level Atlanta Center
03:16PM 36.1058 -84.3472 299° West 140 161 10,600  Level Atlanta Center
03:17PM 36.1286 -84.3883 304° West 140 161 10,600  Level Atlanta Center
03:18PM 36.1514 -84.4147 317° Northwest 145 167 10,700  Climbing Indianapolis Center
03:19PM 36.1769 -84.4506 311° West 141 162 10,700  Level Indianapolis Center
03:20PM 36.2028 -84.4892 310° West 144 166 10,700  Level Indianapolis Center
03:21PM 36.2281 -84.5283 309° West 146 168 10,700  Level Indianapolis Center
03:22PM 36.2592 -84.5747 310° West 146 168 10,700  Level Indianapolis Center
03:23PM 36.2814 -84.6158 304° West 144 166 10,700  Level Indianapolis Center
03:24PM 36.3047 -84.6558 306° West 144 166 10,700  Level Indianapolis Center
03:25PM 36.3283 -84.6950 307° West 142 163 10,700  Level Indianapolis Center
03:26PM 36.3514 -84.7353 305° West 143 165 10,700  Level Indianapolis Center
03:27PM 36.3761 -84.7867 301° West 146 168 10,700  Level Indianapolis Center
03:28PM 36.3967 -84.8306 300° West 147 169 10,700  Level Indianapolis Center
03:29PM 36.4156 -84.8733 299° West 144 166 10,700  Level Indianapolis Center
03:30PM 36.4344 -84.9169 298° West 144 166 10,700  Level Indianapolis Center
03:31PM 36.4511 -84.9614 295° West 144 166 10,700  Level Indianapolis Center
03:32PM 36.4706 -85.0042 299° West 144 166 10,700  Level Indianapolis Center
03:33PM 36.4925 -85.0567 297° West 143 165 10,700  Level Indianapolis Center
03:34PM 36.5114 -85.1006 298° West 143 165 10,700  Level Indianapolis Center
03:35PM 36.5297 -85.1447 297° West 144 166 10,700  Level Indianapolis Center
03:36PM 36.5467 -85.1883 296° West 141 162 10,700  Level Indianapolis Center
03:37PM 36.5647 -85.2328 297° West 143 165 10,700  Level Indianapolis Center
03:38PM 36.5836 -85.2767 298° West 144 166 10,700  Level Indianapolis Center
03:39PM 36.6069 -85.3297 299° West 145 167 10,700  Level Indianapolis Center
03:40PM 36.6253 -85.3739 297° West 145 167 10,700  Level Indianapolis Center
03:42PM 36.6431 -85.4175 297° West 141 162 10,700  Level Indianapolis Center
03:43PM 36.6603 -85.4611 296° West 142 163 10,700  Level Indianapolis Center
03:44PM 36.6792 -85.5061 298° West 143 165 10,700  Level Indianapolis Center
03:45PM 36.6961 -85.5500 296° West 141 162 10,700  Level Indianapolis Center
03:46PM 36.7192 -85.6031 298° West 145 167 10,700  Level Indianapolis Center
03:47PM 36.7367 -85.6472 296° West 142 163 10,700  Level Indianapolis Center
03:48PM 36.7547 -85.6917 297° West 144 166 10,700  Level Indianapolis Center
03:49PM 36.7747 -85.7389 298° West 147 169 10,700  Level Indianapolis Center
03:50PM 36.7928 -85.7831 297° West 142 163 10,700  Level Indianapolis Center
03:51PM 36.8094 -85.8281 295° West 141 162 10,700 -60 Level Indianapolis Center
03:52PM 36.8278 -85.8717 298° West 141 162 10,600 -60 Descending Indianapolis Center
03:54PM 36.8586 -85.9472 297° West 145 167 10,600  Level Indianapolis Center
03:55PM 36.8769 -85.9914 297° West 143 165 10,600  Level Indianapolis Center
03:56PM 36.8947 -86.0356 297° West 143 165 10,600  Level Indianapolis Center
03:57PM 36.9158 -86.0872 297° West 144 166 10,600  Level Indianapolis Center
03:58PM 36.9322 -86.1322 295° West 143 165 10,600  Level Indianapolis Center
03:59PM 36.9508 -86.1764 298° West 145 167 10,600  Level Indianapolis Center
04:00PM 36.9689 -86.2203 297° West 142 163 10,600  Level Indianapolis Center
04:01PM 36.9881 -86.2650 298° West 146 168 10,600  Level Indianapolis Center
04:02PM 37.0050 -86.3069 297° West 139 160 10,600  Level Indianapolis Center
04:03PM 37.0225 -86.3506 297° West 139 160 10,600  Level Indianapolis Center
04:04PM 37.0392 -86.3911 297° West 146 168 10,600  Level Memphis Center
04:05PM 37.0553 -86.4372 294° West 146 168 10,600  Level Memphis Center
04:06PM 37.0733 -86.4778 299° West 146 168 10,600  Level Memphis Center
04:07PM 37.0914 -86.5211 298° West 146 168 10,600  Level Memphis Center
04:08PM 37.1094 -86.5669 296° West 146 168 10,600  Level Memphis Center
04:09PM 37.1294 -86.6131 299° West 146 168 10,600  Level Memphis Center
04:10PM 37.1503 -86.6683 295° West 138 159 10,600  Level Indianapolis Center
04:11PM 37.1717 -86.7189 298° West 138 159 10,600 -120 Level Indianapolis Center
04:12PM 37.1886 -86.7650 295° West 141 162 10,400 -240 Descending Indianapolis Center
04:13PM 37.2081 -86.8111 298° West 145 167 10,200 -180 Descending Indianapolis Center
04:14PM 37.2272 -86.8581 297° West 148 170 10,100 -180 Descending Indianapolis Center
04:15PM 37.2456 -86.9056 296° West 149 171 9,900 -180 Descending Indianapolis Center
04:16PM 37.2650 -86.9525 298° West 148 170 9,800 -120 Descending Indianapolis Center
04:17PM 37.2833 -87.0017 295° West 153 176 9,700 -120 Descending Indianapolis Center
04:18PM 37.3025 -87.0475 298° West 150 173 9,600 -180 Descending Indianapolis Center
04:19PM 37.3233 -87.1025 295° West 146 168 9,400 -300 Descending Indianapolis Center
04:20PM 37.3428 -87.1511 297° West 150 173 9,100 -240 Descending Indianapolis Center
04:21PM 37.3608 -87.1972 296° West 149 171 9,000 -240 Descending Indianapolis Center
04:22PM 37.3803 -87.2439 298° West 149 171 8,700 -240 Descending Indianapolis Center
04:24PM 37.3992 -87.2914 297° West 151 174 8,500 -180 Descending Indianapolis Center
04:25PM 37.4178 -87.3394 296° West 152 175 8,400 -120 Descending Indianapolis Center
04:26PM 37.4372 -87.3844 299° West 150 173 8,300 -180 Descending Indianapolis Center
04:27PM 37.4569 -87.4331 297° West 152 175 8,100 -240 Descending Indianapolis Center
04:28PM 37.4783 -87.4892 296° West 149 171 7,900 -240 Descending Indianapolis Center
04:29PM 37.4969 -87.5353 297° West 148 170 7,700 -240 Descending Indianapolis Center
04:30PM 37.5144 -87.5819 295° West 147 169 7,500 -240 Descending Indianapolis Center
04:31PM 37.5333 -87.6314 296° West 152 175 7,300 -240 Descending Indianapolis Center
04:32PM 37.5517 -87.6794 296° West 153 176 7,100 -240 Descending Indianapolis Center
04:33PM 37.5708 -87.7269 297° West 152 175 6,900 -240 Descending Indianapolis Center
04:34PM 37.5889 -87.7744 296° West 150 173 6,700 -120 Descending Indianapolis Center
04:35PM 37.6117 -87.8311 297° West 152 175 6,700  Level Indianapolis Center
04:36PM 37.6292 -87.8803 294° West 153 176 6,700  Level Indianapolis Center
04:37PM 37.6469 -87.9286 295° West 152 175 6,700  Level Indianapolis Center
04:38PM 37.6653 -87.9772 295° West 152 175 6,700  Level Indianapolis Center
04:39PM 37.6844 -88.0256 297° West 153 176 6,700  Level Indianapolis Center
04:40PM 37.7028 -88.0744 295° West 153 176 6,700  Level Indianapolis Center
04:41PM 37.7203 -88.1239 294° West 153 176 6,700  Level Indianapolis Center
04:42PM 37.7422 -88.1814 296° West 151 174 6,700  Level Indianapolis Center
04:43PM 37.7619 -88.2300 297° West 154 177 6,700  Level Indianapolis Center
04:44PM 37.7814 -88.2781 297° West 154 177 6,700  Level Indianapolis Center
04:45PM 37.8014 -88.3264 298° West 154 177 6,700  Level Indianapolis Center
04:46PM 37.8197 -88.3733 296° West 153 176 6,700  Level Indianapolis Center
04:47PM 37.8383 -88.4225 296° West 153 176 6,700  Level Indianapolis Center
04:48PM 37.8558 -88.4694 295° West 150 173 6,700  Level Indianapolis Center
04:49PM 37.8767 -88.5269 295° West 149 171 6,700 -60 Level Indianapolis Center
04:50PM 37.8953 -88.5753 296° West 150 173 6,600 -60 Descending Indianapolis Center
04:51PM 37.9125 -88.6222 295° West 149 171 6,600  Level Indianapolis Center
04:52PM 37.9311 -88.6703 296° West 150 173 6,600  Level Indianapolis Center
04:54PM 37.9500 -88.7169 297° West 149 171 6,600  Level Indianapolis Center
04:55PM 37.9692 -88.7650 297° West 150 173 6,600  Level Indianapolis Center
04:56PM 37.9875 -88.8131 296° West 151 174 6,600  Level Indianapolis Center
04:57PM 38.0044 -88.8606 294° West 150 173 6,600  Level Indianapolis Center
04:58PM 38.0256 -88.9178 295° West 149 171 6,600  Level Indianapolis Center
04:59PM 38.0500 -88.9803 296° West 146 168 6,600  Level Kansas City Center
05:00PM 38.0708 -89.0322 297° West 148 170 6,600  Level Kansas City Center
05:01PM 38.0864 -89.0806 292° West 150 173 6,700  Climbing Kansas City Center
05:02PM 38.1067 -89.1278 299° West 151 174 6,700  Level Kansas City Center
05:03PM 38.1256 -89.1794 295° West 150 173 6,700  Level Kansas City Center
05:04PM 38.1436 -89.2278 295° West 151 174 6,700  Level Kansas City Center
05:05PM 38.1619 -89.2789 295° West 149 171 6,700  Level Kansas City Center
05:06PM 38.1794 -89.3264 295° West 149 171 6,700  Level Kansas City Center
05:07PM 38.1992 -89.3772 296° West 149 171 6,700 -180 Level Kansas City Center
05:08PM 38.2169 -89.4253 295° West 151 174 6,400 -360 Descending Kansas City Center
05:09PM 38.2372 -89.4775 296° West 153 176 6,000 -420 Descending Kansas City Center
05:10PM 38.2550 -89.5239 296° West 146 168 5,600 -360 Descending Kansas City Center
05:11PM 38.2722 -89.5736 294° West 152 175 5,300 -360 Descending Kansas City Center
05:12PM 38.2922 -89.6250 296° West 151 174 4,900 -360 Descending Kansas City Center
05:13PM 38.3089 -89.6744 293° West 151 174 4,600 -180 Descending Kansas City Center
05:15PM 38.3231 -89.7172 293° West 149 171 4,600  Level Kansas City Center
05:16PM 38.3417 -89.7639 297° West 148 170 4,600  Level Kansas City Center
05:17PM 38.3628 -89.8189 296° West 146 168 4,600  Level Kansas City Center
05:18PM 38.3811 -89.8636 298° West 144 166 4,600  Level Kansas City Center
05:19PM 38.3933 -89.9114 288° West 143 165 4,600 -240 Level Kansas City Center
05:20PM 38.3986 -89.9614 278° West 142 163 4,200 -480 Descending Kansas City Center
05:21PM 38.4056 -90.0086 281° West 140 161 3,700 -300 Descending Kansas City Center
05:22PM 38.4119 -90.0569 280° West 138 159 3,600 -60 Descending Kansas City Center
05:23PM 38.4267 -90.1100 290° West 136 157 3,600  Level Kansas City Center
05:24PM 38.4483 -90.1536 302° West 140 161 3,600  Level Kansas City Center
05:25PM 38.4683 -90.1994 299° West 144 166 3,600  Level Kansas City Center
05:26PM 38.4869 -90.2456 297° West 146 168 3,600  Level Kansas City Center
05:27PM 38.5056 -90.2914 297° West 146 168 3,600  Level Kansas City Center
05:28PM 38.5244 -90.3381 297° West 146 168 3,600  Level Kansas City Center
05:29PM 38.5442 -90.3947 294° West 146 168 3,600 -60 Level Kansas City Center
05:30PM 38.5619 -90.4400 297° West 144 166 3,500 -240 Descending Kansas City Center
05:31PM 38.5814 -90.4881 297° West 147 169 3,100 -300 Descending Kansas City Center
05:32PM 38.5997 -90.5356 296° West 149 171 3,000 -300 Descending Kansas City Center
05:33PM 38.6167 -90.5806 296° West 144 166 2,600 -480 Descending Kansas City Center
05:34PM 38.6244 -90.6264 282° West 136 157 2,100 -360 Descending Kansas City Center
05:35PM 38.6272 -90.6686 275° West 128 147 1,900 -360 Descending Kansas City Center
05:36PM 38.6506 -90.6908 323° Northwest 113 130 1,400 -660 Descending Kansas City Center
05:37PM 38.6581 -90.6586 73° East 100 115 600 -840 Descending Kansas City Center